Portada
METAR-TAF:

METAR-TAF

Aeropuertos :

Passo Rolle, Italia

latitud: 46-18N, longitud: 011-47E, altitud: 2004 m

Observación

El informe se hizo hace 1 hora y 19 minutos, a las 12:55 UTC
Viento 2 kt del norte
Temperatura -1°C
Humedad 64%
Presión 1017 hPa
Visibilidad 10 km o más
sin nubes por debajo de 1500 m y sin presencia de cumulonimbus.

METAR: LIVR 171255Z 35002KT CAVOK M01/M07 Q1017 RMK SKC MON LIB VIS MIN 9999

Hora: 15:14 (14:14 UTC)


TAF: falta

Observaciones y pronósticos meteorológicos de más de 4000 aeropuertos (mensajes METAR y TAF).

Los puntos amarillos y rojos representan las estaciones disponibles.

Ponga el ratón en el punto deseado para ver el nombre de la estación.

Haga clic para ver las observaciones y los pronósticos meteorológicos.

Para cambiar el mapa : haga clic en los botones verdes con una cruz de color negro para hacer un zoom, en el botón verde con un guión para alejar o en las flechas verdes para mapas adyacentes.


METAR-TAF: